sensor_id;sensor_type;location;lat;lon;timestamp;P1;durP1;ratioP1;P2;durP2;ratioP2
70303;SDS011;57712;48.752;11.348;2024-01-06T00:00:09;25.58;;;14.52;;
70303;SDS011;57712;48.752;11.348;2024-01-06T00:02:36;23.35;;;15.30;;
70303;SDS011;57712;48.752;11.348;2024-01-06T00:05:03;20.93;;;13.53;;
70303;SDS011;57712;48.752;11.348;2024-01-06T00:07:30;23.25;;;13.75;;
70303;SDS011;57712;48.752;11.348;2024-01-06T00:09:56;21.50;;;13.30;;
70303;SDS011;57712;48.752;11.348;2024-01-06T00:12:23;28.08;;;14.90;;
70303;SDS011;57712;48.752;11.348;2024-01-06T00:14:50;21.42;;;13.52;;
70303;SDS011;57712;48.752;11.348;2024-01-06T00:17:16;25.57;;;14.83;;
70303;SDS011;57712;48.752;11.348;2024-01-06T00:19:43;34.17;;;15.38;;
70303;SDS011;57712;48.752;11.348;2024-01-06T00:22:10;26.08;;;15.82;;
70303;SDS011;57712;48.752;11.348;2024-01-06T00:24:37;24.95;;;14.02;;
70303;SDS011;57712;48.752;11.348;2024-01-06T00:27:03;26.17;;;15.02;;
70303;SDS011;57712;48.752;11.348;2024-01-06T00:29:30;25.43;;;14.13;;
70303;SDS011;57712;48.752;11.348;2024-01-06T00:31:57;24.13;;;14.25;;
70303;SDS011;57712;48.752;11.348;2024-01-06T00:34:24;23.77;;;14.60;;
70303;SDS011;57712;48.752;11.348;2024-01-06T00:36:51;26.30;;;14.60;;
70303;SDS011;57712;48.752;11.348;2024-01-06T00:39:17;25.45;;;15.20;;
70303;SDS011;57712;48.752;11.348;2024-01-06T00:41:44;26.63;;;15.80;;
70303;SDS011;57712;48.752;11.348;2024-01-06T00:44:11;27.77;;;15.30;;
70303;SDS011;57712;48.752;11.348;2024-01-06T00:46:39;24.45;;;15.73;;
70303;SDS011;57712;48.752;11.348;2024-01-06T00:49:05;23.88;;;15.55;;
70303;SDS011;57712;48.752;11.348;2024-01-06T00:51:32;23.27;;;14.77;;
70303;SDS011;57712;48.752;11.348;2024-01-06T00:54:03;28.33;;;15.23;;
70303;SDS011;57712;48.752;11.348;2024-01-06T00:56:30;25.15;;;14.32;;
70303;SDS011;57712;48.752;11.348;2024-01-06T00:58:56;26.35;;;15.23;;
70303;SDS011;57712;48.752;11.348;2024-01-06T01:01:23;24.25;;;14.25;;
70303;SDS011;57712;48.752;11.348;2024-01-06T01:03:50;31.73;;;18.48;;
70303;SDS011;57712;48.752;11.348;2024-01-06T01:06:16;27.40;;;16.47;;
70303;SDS011;57712;48.752;11.348;2024-01-06T01:08:43;27.17;;;15.88;;
70303;SDS011;57712;48.752;11.348;2024-01-06T01:11:10;29.13;;;17.27;;
70303;SDS011;57712;48.752;11.348;2024-01-06T01:13:37;25.95;;;15.38;;
70303;SDS011;57712;48.752;11.348;2024-01-06T01:16:04;26.90;;;15.20;;
70303;SDS011;57712;48.752;11.348;2024-01-06T01:18:31;29.93;;;17.07;;
70303;SDS011;57712;48.752;11.348;2024-01-06T01:20:58;27.95;;;17.83;;
70303;SDS011;57712;48.752;11.348;2024-01-06T01:23:24;29.73;;;17.35;;
70303;SDS011;57712;48.752;11.348;2024-01-06T01:25:51;26.05;;;15.65;;
70303;SDS011;57712;48.752;11.348;2024-01-06T01:28:18;27.63;;;15.70;;
70303;SDS011;57712;48.752;11.348;2024-01-06T01:30:44;26.63;;;15.50;;
70303;SDS011;57712;48.752;11.348;2024-01-06T01:33:11;25.38;;;14.55;;
70303;SDS011;57712;48.752;11.348;2024-01-06T01:35:38;23.25;;;13.27;;
70303;SDS011;57712;48.752;11.348;2024-01-06T01:38:06;21.90;;;13.15;;
70303;SDS011;57712;48.752;11.348;2024-01-06T01:40:33;26.58;;;15.00;;
70303;SDS011;57712;48.752;11.348;2024-01-06T01:43:00;23.43;;;13.70;;
70303;SDS011;57712;48.752;11.348;2024-01-06T01:45:26;22.38;;;13.68;;
70303;SDS011;57712;48.752;11.348;2024-01-06T01:47:53;24.67;;;13.85;;
70303;SDS011;57712;48.752;11.348;2024-01-06T01:50:20;23.63;;;13.77;;
70303;SDS011;57712;48.752;11.348;2024-01-06T01:52:48;22.38;;;13.20;;
70303;SDS011;57712;48.752;11.348;2024-01-06T01:55:15;24.23;;;13.60;;
70303;SDS011;57712;48.752;11.348;2024-01-06T01:57:42;22.38;;;12.82;;
70303;SDS011;57712;48.752;11.348;2024-01-06T02:00:09;23.95;;;14.48;;
70303;SDS011;57712;48.752;11.348;2024-01-06T02:02:36;21.38;;;13.20;;
70303;SDS011;57712;48.752;11.348;2024-01-06T02:05:03;23.85;;;13.43;;
70303;SDS011;57712;48.752;11.348;2024-01-06T02:07:31;25.87;;;13.57;;
70303;SDS011;57712;48.752;11.348;2024-01-06T02:09:57;22.65;;;13.57;;
70303;SDS011;57712;48.752;11.348;2024-01-06T02:12:24;22.45;;;13.10;;
70303;SDS011;57712;48.752;11.348;2024-01-06T02:14:51;24.00;;;12.40;;
70303;SDS011;57712;48.752;11.348;2024-01-06T02:17:17;23.15;;;14.00;;
70303;SDS011;57712;48.752;11.348;2024-01-06T02:19:44;22.07;;;13.80;;
70303;SDS011;57712;48.752;11.348;2024-01-06T02:22:11;23.17;;;13.40;;
70303;SDS011;57712;48.752;11.348;2024-01-06T02:24:38;24.75;;;13.75;;
70303;SDS011;57712;48.752;11.348;2024-01-06T02:27:05;23.13;;;12.85;;
70303;SDS011;57712;48.752;11.348;2024-01-06T02:29:31;23.17;;;13.15;;
70303;SDS011;57712;48.752;11.348;2024-01-06T02:31:58;22.30;;;12.20;;
70303;SDS011;57712;48.752;11.348;2024-01-06T02:34:25;21.50;;;12.95;;
70303;SDS011;57712;48.752;11.348;2024-01-06T02:36:52;20.50;;;12.52;;
70303;SDS011;57712;48.752;11.348;2024-01-06T02:39:18;22.55;;;13.55;;
70303;SDS011;57712;48.752;11.348;2024-01-06T02:41:45;25.50;;;13.52;;
70303;SDS011;57712;48.752;11.348;2024-01-06T02:44:12;23.83;;;12.47;;
70303;SDS011;57712;48.752;11.348;2024-01-06T02:46:40;22.70;;;12.55;;
70303;SDS011;57712;48.752;11.348;2024-01-06T02:49:07;22.75;;;14.10;;
70303;SDS011;57712;48.752;11.348;2024-01-06T02:51:34;21.95;;;11.98;;
70303;SDS011;57712;48.752;11.348;2024-01-06T02:54:01;22.10;;;13.25;;
70303;SDS011;57712;48.752;11.348;2024-01-06T02:56:27;27.37;;;13.03;;
70303;SDS011;57712;48.752;11.348;2024-01-06T02:58:54;22.33;;;13.13;;
70303;SDS011;57712;48.752;11.348;2024-01-06T03:01:21;21.40;;;12.70;;
70303;SDS011;57712;48.752;11.348;2024-01-06T03:03:47;21.50;;;12.73;;
70303;SDS011;57712;48.752;11.348;2024-01-06T03:06:14;23.75;;;13.18;;
70303;SDS011;57712;48.752;11.348;2024-01-06T03:08:41;22.47;;;13.27;;
70303;SDS011;57712;48.752;11.348;2024-01-06T03:11:10;23.00;;;13.57;;
70303;SDS011;57712;48.752;11.348;2024-01-06T03:13:36;22.67;;;13.40;;
70303;SDS011;57712;48.752;11.348;2024-01-06T03:16:03;22.00;;;13.43;;
70303;SDS011;57712;48.752;11.348;2024-01-06T03:18:31;20.13;;;13.10;;
70303;SDS011;57712;48.752;11.348;2024-01-06T03:20:58;24.30;;;13.57;;
70303;SDS011;57712;48.752;11.348;2024-01-06T03:23:25;21.60;;;12.80;;
70303;SDS011;57712;48.752;11.348;2024-01-06T03:25:52;23.35;;;13.82;;
70303;SDS011;57712;48.752;11.348;2024-01-06T03:28:18;24.17;;;13.20;;
70303;SDS011;57712;48.752;11.348;2024-01-06T03:30:45;22.42;;;13.10;;
70303;SDS011;57712;48.752;11.348;2024-01-06T03:33:12;23.83;;;12.63;;
70303;SDS011;57712;48.752;11.348;2024-01-06T03:35:39;23.27;;;13.00;;
70303;SDS011;57712;48.752;11.348;2024-01-06T03:38:05;23.63;;;13.65;;
70303;SDS011;57712;48.752;11.348;2024-01-06T03:40:32;21.85;;;13.13;;
70303;SDS011;57712;48.752;11.348;2024-01-06T03:42:59;22.50;;;12.90;;
70303;SDS011;57712;48.752;11.348;2024-01-06T03:45:26;23.43;;;13.03;;
70303;SDS011;57712;48.752;11.348;2024-01-06T03:47:53;20.00;;;12.30;;
70303;SDS011;57712;48.752;11.348;2024-01-06T03:50:20;23.90;;;13.05;;
70303;SDS011;57712;48.752;11.348;2024-01-06T03:52:47;22.27;;;12.50;;
70303;SDS011;57712;48.752;11.348;2024-01-06T03:55:15;20.23;;;11.70;;
70303;SDS011;57712;48.752;11.348;2024-01-06T03:57:42;20.70;;;11.20;;
70303;SDS011;57712;48.752;11.348;2024-01-06T04:00:09;19.98;;;10.68;;
70303;SDS011;57712;48.752;11.348;2024-01-06T04:02:36;17.67;;;10.07;;
70303;SDS011;57712;48.752;11.348;2024-01-06T04:05:03;17.95;;;9.50;;
70303;SDS011;57712;48.752;11.348;2024-01-06T04:07:31;18.17;;;9.63;;
70303;SDS011;57712;48.752;11.348;2024-01-06T04:09:58;19.53;;;10.23;;
70303;SDS011;57712;48.752;11.348;2024-01-06T04:12:25;19.35;;;9.38;;
70303;SDS011;57712;48.752;11.348;2024-01-06T04:14:51;15.07;;;8.13;;
70303;SDS011;57712;48.752;11.348;2024-01-06T04:17:18;17.75;;;7.65;;
70303;SDS011;57712;48.752;11.348;2024-01-06T04:19:45;13.55;;;6.45;;
70303;SDS011;57712;48.752;11.348;2024-01-06T04:22:11;12.60;;;5.97;;
70303;SDS011;57712;48.752;11.348;2024-01-06T04:24:38;15.43;;;6.28;;
70303;SDS011;57712;48.752;11.348;2024-01-06T04:27:07;11.18;;;6.28;;
70303;SDS011;57712;48.752;11.348;2024-01-06T04:29:34;14.27;;;6.25;;
70303;SDS011;57712;48.752;11.348;2024-01-06T04:32:00;11.02;;;5.20;;
70303;SDS011;57712;48.752;11.348;2024-01-06T04:34:27;11.60;;;4.87;;
70303;SDS011;57712;48.752;11.348;2024-01-06T04:36:54;12.95;;;5.07;;
70303;SDS011;57712;48.752;11.348;2024-01-06T04:39:20;10.25;;;4.88;;
70303;SDS011;57712;48.752;11.348;2024-01-06T04:41:47;11.75;;;3.92;;
70303;SDS011;57712;48.752;11.348;2024-01-06T04:44:14;9.80;;;3.95;;
70303;SDS011;57712;48.752;11.348;2024-01-06T04:46:40;11.43;;;3.97;;
70303;SDS011;57712;48.752;11.348;2024-01-06T04:49:07;10.40;;;3.97;;
70303;SDS011;57712;48.752;11.348;2024-01-06T04:51:34;9.75;;;3.55;;
70303;SDS011;57712;48.752;11.348;2024-01-06T04:54:00;9.65;;;2.90;;
70303;SDS011;57712;48.752;11.348;2024-01-06T04:56:27;10.07;;;3.45;;
70303;SDS011;57712;48.752;11.348;2024-01-06T04:58:54;8.73;;;3.50;;
70303;SDS011;57712;48.752;11.348;2024-01-06T05:01:20;9.88;;;3.20;;
70303;SDS011;57712;48.752;11.348;2024-01-06T05:03:47;9.25;;;3.38;;
70303;SDS011;57712;48.752;11.348;2024-01-06T05:06:14;9.70;;;3.50;;
70303;SDS011;57712;48.752;11.348;2024-01-06T05:08:41;10.13;;;3.42;;
70303;SDS011;57712;48.752;11.348;2024-01-06T05:11:11;10.33;;;3.50;;
70303;SDS011;57712;48.752;11.348;2024-01-06T05:13:38;8.40;;;3.40;;
70303;SDS011;57712;48.752;11.348;2024-01-06T05:16:05;11.30;;;3.70;;
70303;SDS011;57712;48.752;11.348;2024-01-06T05:18:32;8.45;;;3.20;;
70303;SDS011;57712;48.752;11.348;2024-01-06T05:20:59;11.45;;;4.07;;
70303;SDS011;57712;48.752;11.348;2024-01-06T05:23:26;9.57;;;3.80;;
70303;SDS011;57712;48.752;11.348;2024-01-06T05:25:52;10.32;;;3.90;;
70303;SDS011;57712;48.752;11.348;2024-01-06T05:28:19;9.35;;;3.90;;
70303;SDS011;57712;48.752;11.348;2024-01-06T05:30:46;11.00;;;4.18;;
70303;SDS011;57712;48.752;11.348;2024-01-06T05:33:13;11.13;;;4.18;;
70303;SDS011;57712;48.752;11.348;2024-01-06T05:35:41;8.43;;;3.57;;
70303;SDS011;57712;48.752;11.348;2024-01-06T05:38:08;9.63;;;3.35;;
70303;SDS011;57712;48.752;11.348;2024-01-06T05:40:35;9.35;;;3.58;;
70303;SDS011;57712;48.752;11.348;2024-01-06T05:43:01;12.38;;;4.78;;
70303;SDS011;57712;48.752;11.348;2024-01-06T05:45:28;10.65;;;5.03;;
70303;SDS011;57712;48.752;11.348;2024-01-06T05:47:56;12.40;;;5.90;;
70303;SDS011;57712;48.752;11.348;2024-01-06T05:50:24;14.52;;;6.80;;
70303;SDS011;57712;48.752;11.348;2024-01-06T05:52:50;14.23;;;7.22;;
70303;SDS011;57712;48.752;11.348;2024-01-06T05:55:18;14.40;;;6.00;;
70303;SDS011;57712;48.752;11.348;2024-01-06T05:57:45;11.52;;;4.45;;
70303;SDS011;57712;48.752;11.348;2024-01-06T06:00:12;8.93;;;3.67;;
70303;SDS011;57712;48.752;11.348;2024-01-06T06:02:40;8.20;;;3.47;;
70303;SDS011;57712;48.752;11.348;2024-01-06T06:05:07;9.02;;;3.42;;
70303;SDS011;57712;48.752;11.348;2024-01-06T06:07:34;8.98;;;3.42;;
70303;SDS011;57712;48.752;11.348;2024-01-06T06:10:09;8.07;;;3.72;;
70303;SDS011;57712;48.752;11.348;2024-01-06T06:12:37;8.80;;;2.90;;
70303;SDS011;57712;48.752;11.348;2024-01-06T06:15:05;8.50;;;3.15;;
70303;SDS011;57712;48.752;11.348;2024-01-06T06:17:33;8.50;;;3.42;;
70303;SDS011;57712;48.752;11.348;2024-01-06T06:20:00;7.50;;;3.42;;
70303;SDS011;57712;48.752;11.348;2024-01-06T06:22:27;9.07;;;3.60;;
70303;SDS011;57712;48.752;11.348;2024-01-06T06:24:57;9.43;;;3.80;;
70303;SDS011;57712;48.752;11.348;2024-01-06T06:27:24;7.43;;;3.30;;
70303;SDS011;57712;48.752;11.348;2024-01-06T06:29:52;9.43;;;3.47;;
70303;SDS011;57712;48.752;11.348;2024-01-06T06:32:19;9.15;;;3.30;;
70303;SDS011;57712;48.752;11.348;2024-01-06T06:34:45;10.13;;;3.50;;
70303;SDS011;57712;48.752;11.348;2024-01-06T06:37:12;7.10;;;3.30;;
70303;SDS011;57712;48.752;11.348;2024-01-06T06:39:39;8.65;;;3.55;;
70303;SDS011;57712;48.752;11.348;2024-01-06T06:42:06;8.18;;;3.75;;
70303;SDS011;57712;48.752;11.348;2024-01-06T06:44:32;9.20;;;3.35;;
70303;SDS011;57712;48.752;11.348;2024-01-06T06:46:59;9.05;;;3.05;;
70303;SDS011;57712;48.752;11.348;2024-01-06T06:49:26;7.73;;;2.87;;
70303;SDS011;57712;48.752;11.348;2024-01-06T06:51:52;8.13;;;2.92;;
70303;SDS011;57712;48.752;11.348;2024-01-06T06:54:19;7.18;;;2.85;;
70303;SDS011;57712;48.752;11.348;2024-01-06T06:56:46;11.20;;;3.78;;
70303;SDS011;57712;48.752;11.348;2024-01-06T06:59:12;10.85;;;3.65;;
70303;SDS011;57712;48.752;11.348;2024-01-06T07:01:39;9.23;;;3.80;;
70303;SDS011;57712;48.752;11.348;2024-01-06T07:04:09;9.32;;;3.45;;
70303;SDS011;57712;48.752;11.348;2024-01-06T07:06:36;12.88;;;4.53;;
70303;SDS011;57712;48.752;11.348;2024-01-06T07:09:02;10.75;;;4.38;;
70303;SDS011;57712;48.752;11.348;2024-01-06T07:11:31;9.85;;;4.15;;
70303;SDS011;57712;48.752;11.348;2024-01-06T07:13:58;11.30;;;4.40;;
70303;SDS011;57712;48.752;11.348;2024-01-06T07:16:24;14.02;;;4.65;;
70303;SDS011;57712;48.752;11.348;2024-01-06T07:18:51;11.18;;;4.13;;
70303;SDS011;57712;48.752;11.348;2024-01-06T07:21:18;9.30;;;3.70;;
70303;SDS011;57712;48.752;11.348;2024-01-06T07:23:45;9.25;;;4.13;;
70303;SDS011;57712;48.752;11.348;2024-01-06T07:26:11;10.50;;;4.77;;
70303;SDS011;57712;48.752;11.348;2024-01-06T07:28:38;10.90;;;4.43;;
70303;SDS011;57712;48.752;11.348;2024-01-06T07:31:05;12.18;;;4.60;;
70303;SDS011;57712;48.752;11.348;2024-01-06T07:33:32;26.38;;;14.48;;
70303;SDS011;57712;48.752;11.348;2024-01-06T07:35:59;10.43;;;5.10;;
70303;SDS011;57712;48.752;11.348;2024-01-06T07:38:25;12.00;;;4.87;;
70303;SDS011;57712;48.752;11.348;2024-01-06T07:40:52;14.60;;;6.00;;
70303;SDS011;57712;48.752;11.348;2024-01-06T07:43:20;15.75;;;7.65;;
70303;SDS011;57712;48.752;11.348;2024-01-06T07:45:47;15.85;;;8.43;;
70303;SDS011;57712;48.752;11.348;2024-01-06T07:48:15;13.13;;;6.88;;
70303;SDS011;57712;48.752;11.348;2024-01-06T07:50:43;14.20;;;5.90;;
70303;SDS011;57712;48.752;11.348;2024-01-06T07:53:09;13.60;;;6.05;;
70303;SDS011;57712;48.752;11.348;2024-01-06T07:55:36;11.23;;;5.28;;
70303;SDS011;57712;48.752;11.348;2024-01-06T07:58:03;8.75;;;4.63;;
70303;SDS011;57712;48.752;11.348;2024-01-06T08:00:29;13.55;;;5.15;;
70303;SDS011;57712;48.752;11.348;2024-01-06T08:02:56;10.27;;;4.50;;
70303;SDS011;57712;48.752;11.348;2024-01-06T08:05:23;13.68;;;4.80;;
70303;SDS011;57712;48.752;11.348;2024-01-06T08:07:50;10.27;;;4.97;;
70303;SDS011;57712;48.752;11.348;2024-01-06T08:10:20;10.25;;;4.50;;
70303;SDS011;57712;48.752;11.348;2024-01-06T08:12:50;9.98;;;4.95;;
70303;SDS011;57712;48.752;11.348;2024-01-06T08:15:17;11.50;;;5.57;;
70303;SDS011;57712;48.752;11.348;2024-01-06T08:17:43;12.55;;;5.13;;
70303;SDS011;57712;48.752;11.348;2024-01-06T08:20:10;11.55;;;5.60;;
70303;SDS011;57712;48.752;11.348;2024-01-06T08:22:37;13.45;;;5.82;;
70303;SDS011;57712;48.752;11.348;2024-01-06T08:25:04;10.25;;;5.38;;
70303;SDS011;57712;48.752;11.348;2024-01-06T08:27:33;13.97;;;7.73;;
70303;SDS011;57712;48.752;11.348;2024-01-06T08:30:01;12.70;;;6.18;;
70303;SDS011;57712;48.752;11.348;2024-01-06T08:32:29;13.70;;;6.43;;
70303;SDS011;57712;48.752;11.348;2024-01-06T08:34:56;16.13;;;8.38;;
70303;SDS011;57712;48.752;11.348;2024-01-06T08:37:22;17.40;;;9.90;;
70303;SDS011;57712;48.752;11.348;2024-01-06T08:39:49;18.07;;;11.90;;
70303;SDS011;57712;48.752;11.348;2024-01-06T08:42:16;18.23;;;9.88;;
70303;SDS011;57712;48.752;11.348;2024-01-06T08:44:43;16.30;;;9.57;;
70303;SDS011;57712;48.752;11.348;2024-01-06T08:47:10;15.00;;;7.38;;
70303;SDS011;57712;48.752;11.348;2024-01-06T08:49:36;13.60;;;7.18;;
70303;SDS011;57712;48.752;11.348;2024-01-06T08:52:03;17.60;;;9.50;;
70303;SDS011;57712;48.752;11.348;2024-01-06T08:54:31;17.63;;;8.52;;
70303;SDS011;57712;48.752;11.348;2024-01-06T08:56:59;17.65;;;9.32;;
70303;SDS011;57712;48.752;11.348;2024-01-06T08:59:26;20.98;;;9.38;;
70303;SDS011;57712;48.752;11.348;2024-01-06T09:01:52;17.65;;;9.63;;
70303;SDS011;57712;48.752;11.348;2024-01-06T09:04:19;16.93;;;9.40;;
70303;SDS011;57712;48.752;11.348;2024-01-06T09:06:46;17.85;;;9.00;;
70303;SDS011;57712;48.752;11.348;2024-01-06T09:09:13;14.80;;;7.05;;
70303;SDS011;57712;48.752;11.348;2024-01-06T09:11:40;14.57;;;6.20;;
70303;SDS011;57712;48.752;11.348;2024-01-06T09:14:08;11.90;;;5.38;;
70303;SDS011;57712;48.752;11.348;2024-01-06T09:16:36;14.37;;;5.80;;
70303;SDS011;57712;48.752;11.348;2024-01-06T09:19:03;11.43;;;6.00;;
70303;SDS011;57712;48.752;11.348;2024-01-06T09:21:30;10.73;;;5.38;;
70303;SDS011;57712;48.752;11.348;2024-01-06T09:23:56;10.45;;;5.60;;
70303;SDS011;57712;48.752;11.348;2024-01-06T09:26:23;11.38;;;5.72;;
70303;SDS011;57712;48.752;11.348;2024-01-06T09:28:50;11.67;;;5.10;;
70303;SDS011;57712;48.752;11.348;2024-01-06T09:31:16;11.18;;;5.22;;
70303;SDS011;57712;48.752;11.348;2024-01-06T09:33:43;13.32;;;5.15;;
70303;SDS011;57712;48.752;11.348;2024-01-06T09:36:10;12.45;;;5.03;;
70303;SDS011;57712;48.752;11.348;2024-01-06T09:38:40;12.65;;;5.50;;
70303;SDS011;57712;48.752;11.348;2024-01-06T09:41:07;14.53;;;5.20;;
70303;SDS011;57712;48.752;11.348;2024-01-06T09:43:34;15.43;;;6.45;;
70303;SDS011;57712;48.752;11.348;2024-01-06T09:46:44;15.32;;;6.95;;
70303;SDS011;57712;48.752;11.348;2024-01-06T09:48:56;20.25;;;7.70;;
70303;SDS011;57712;48.752;11.348;2024-01-06T09:51:24;16.70;;;7.57;;
70303;SDS011;57712;48.752;11.348;2024-01-06T09:53:57;12.57;;;6.00;;
70303;SDS011;57712;48.752;11.348;2024-01-06T09:56:26;15.82;;;6.43;;
70303;SDS011;57712;48.752;11.348;2024-01-06T09:58:54;13.30;;;5.95;;
70303;SDS011;57712;48.752;11.348;2024-01-06T10:01:22;12.15;;;5.57;;
70303;SDS011;57712;48.752;11.348;2024-01-06T10:03:51;10.68;;;5.30;;
70303;SDS011;57712;48.752;11.348;2024-01-06T10:06:18;13.07;;;5.63;;
70303;SDS011;57712;48.752;11.348;2024-01-06T10:08:50;13.07;;;5.68;;
70303;SDS011;57712;48.752;11.348;2024-01-06T10:11:18;13.02;;;5.13;;
70303;SDS011;57712;48.752;11.348;2024-01-06T10:13:45;12.63;;;5.70;;
70303;SDS011;57712;48.752;11.348;2024-01-06T10:16:14;13.43;;;6.10;;
70303;SDS011;57712;48.752;11.348;2024-01-06T10:18:40;9.77;;;4.37;;
70303;SDS011;57712;48.752;11.348;2024-01-06T10:21:07;11.52;;;5.40;;
70303;SDS011;57712;48.752;11.348;2024-01-06T10:23:35;10.85;;;5.38;;
70303;SDS011;57712;48.752;11.348;2024-01-06T10:26:03;14.50;;;6.00;;
70303;SDS011;57712;48.752;11.348;2024-01-06T10:28:31;20.00;;;7.80;;
70303;SDS011;57712;48.752;11.348;2024-01-06T10:30:59;14.30;;;5.80;;
70303;SDS011;57712;48.752;11.348;2024-01-06T10:33:26;10.90;;;5.95;;
70303;SDS011;57712;48.752;11.348;2024-01-06T10:35:53;18.73;;;9.15;;
70303;SDS011;57712;48.752;11.348;2024-01-06T10:38:22;15.40;;;6.53;;
70303;SDS011;57712;48.752;11.348;2024-01-06T10:43:25;10.37;;;5.83;;
70303;SDS011;57712;48.752;11.348;2024-01-06T10:45:53;12.00;;;5.43;;
70303;SDS011;57712;48.752;11.348;2024-01-06T10:48:24;9.90;;;5.25;;
70303;SDS011;57712;48.752;11.348;2024-01-06T10:50:53;11.55;;;5.53;;
70303;SDS011;57712;48.752;11.348;2024-01-06T10:53:21;12.85;;;6.20;;
70303;SDS011;57712;48.752;11.348;2024-01-06T10:55:51;13.70;;;5.57;;
70303;SDS011;57712;48.752;11.348;2024-01-06T10:58:21;10.05;;;4.78;;
70303;SDS011;57712;48.752;11.348;2024-01-06T11:00:48;13.23;;;6.40;;
70303;SDS011;57712;48.752;11.348;2024-01-06T11:03:16;12.10;;;5.80;;
70303;SDS011;57712;48.752;11.348;2024-01-06T11:05:44;11.68;;;5.57;;
70303;SDS011;57712;48.752;11.348;2024-01-06T11:08:11;12.37;;;5.63;;
70303;SDS011;57712;48.752;11.348;2024-01-06T11:10:39;11.90;;;5.50;;
70303;SDS011;57712;48.752;11.348;2024-01-06T11:13:13;14.05;;;6.22;;
70303;SDS011;57712;48.752;11.348;2024-01-06T11:15:48;13.27;;;5.82;;
70303;SDS011;57712;48.752;11.348;2024-01-06T11:23:40;14.32;;;5.72;;
70303;SDS011;57712;48.752;11.348;2024-01-06T11:26:07;9.63;;;4.50;;
70303;SDS011;57712;48.752;11.348;2024-01-06T11:28:44;11.82;;;5.05;;
70303;SDS011;57712;48.752;11.348;2024-01-06T11:31:13;11.05;;;4.25;;
70303;SDS011;57712;48.752;11.348;2024-01-06T11:33:41;10.37;;;4.60;;
70303;SDS011;57712;48.752;11.348;2024-01-06T11:36:14;10.48;;;4.97;;
70303;SDS011;57712;48.752;11.348;2024-01-06T11:38:42;10.68;;;4.45;;
70303;SDS011;57712;48.752;11.348;2024-01-06T11:41:23;8.13;;;3.25;;
70303;SDS011;57712;48.752;11.348;2024-01-06T11:44:21;10.07;;;3.63;;
70303;SDS011;57712;48.752;11.348;2024-01-06T11:46:48;7.53;;;3.70;;
70303;SDS011;57712;48.752;11.348;2024-01-06T11:49:16;9.52;;;3.30;;
70303;SDS011;57712;48.752;11.348;2024-01-06T11:51:43;7.07;;;2.30;;
70303;SDS011;57712;48.752;11.348;2024-01-06T11:54:09;9.63;;;2.05;;
70303;SDS011;57712;48.752;11.348;2024-01-06T11:56:37;6.15;;;2.53;;
70303;SDS011;57712;48.752;11.348;2024-01-06T11:59:05;9.00;;;3.33;;
70303;SDS011;57712;48.752;11.348;2024-01-06T12:01:37;7.85;;;2.78;;
70303;SDS011;57712;48.752;11.348;2024-01-06T12:04:05;6.75;;;2.67;;
70303;SDS011;57712;48.752;11.348;2024-01-06T12:06:33;7.72;;;3.20;;
70303;SDS011;57712;48.752;11.348;2024-01-06T12:09:07;7.25;;;2.90;;
70303;SDS011;57712;48.752;11.348;2024-01-06T12:11:34;8.27;;;2.80;;
70303;SDS011;57712;48.752;11.348;2024-01-06T12:14:01;8.02;;;2.78;;
70303;SDS011;57712;48.752;11.348;2024-01-06T12:16:28;7.18;;;2.65;;
70303;SDS011;57712;48.752;11.348;2024-01-06T12:18:55;8.85;;;3.42;;
70303;SDS011;57712;48.752;11.348;2024-01-06T12:21:23;10.32;;;3.47;;
70303;SDS011;57712;48.752;11.348;2024-01-06T12:23:50;9.40;;;3.10;;
70303;SDS011;57712;48.752;11.348;2024-01-06T12:26:17;8.40;;;2.92;;
70303;SDS011;57712;48.752;11.348;2024-01-06T12:28:45;7.53;;;2.90;;
70303;SDS011;57712;48.752;11.348;2024-01-06T12:31:18;6.78;;;3.05;;
70303;SDS011;57712;48.752;11.348;2024-01-06T12:33:46;7.63;;;3.10;;
70303;SDS011;57712;48.752;11.348;2024-01-06T12:36:13;7.77;;;2.63;;
70303;SDS011;57712;48.752;11.348;2024-01-06T12:38:52;9.30;;;3.58;;
70303;SDS011;57712;48.752;11.348;2024-01-06T12:41:18;8.55;;;3.25;;
70303;SDS011;57712;48.752;11.348;2024-01-06T12:43:47;8.45;;;3.25;;
70303;SDS011;57712;48.752;11.348;2024-01-06T12:46:14;8.82;;;3.03;;
70303;SDS011;57712;48.752;11.348;2024-01-06T12:48:41;9.40;;;3.33;;
70303;SDS011;57712;48.752;11.348;2024-01-06T12:51:08;9.07;;;4.38;;
70303;SDS011;57712;48.752;11.348;2024-01-06T12:53:35;8.55;;;3.63;;
70303;SDS011;57712;48.752;11.348;2024-01-06T12:56:02;8.63;;;3.88;;
70303;SDS011;57712;48.752;11.348;2024-01-06T12:58:29;8.38;;;3.58;;
70303;SDS011;57712;48.752;11.348;2024-01-06T13:00:55;8.03;;;2.83;;
70303;SDS011;57712;48.752;11.348;2024-01-06T13:03:23;8.23;;;2.90;;
70303;SDS011;57712;48.752;11.348;2024-01-06T13:05:50;8.45;;;3.40;;
70303;SDS011;57712;48.752;11.348;2024-01-06T13:08:17;9.43;;;3.20;;
70303;SDS011;57712;48.752;11.348;2024-01-06T13:10:44;9.90;;;3.75;;
70303;SDS011;57712;48.752;11.348;2024-01-06T13:13:10;10.23;;;4.20;;
70303;SDS011;57712;48.752;11.348;2024-01-06T13:15:37;13.00;;;4.50;;
70303;SDS011;57712;48.752;11.348;2024-01-06T13:18:04;8.02;;;3.88;;
70303;SDS011;57712;48.752;11.348;2024-01-06T13:20:31;9.07;;;3.50;;
70303;SDS011;57712;48.752;11.348;2024-01-06T13:22:58;7.65;;;3.20;;
70303;SDS011;57712;48.752;11.348;2024-01-06T13:25:25;7.50;;;3.73;;
70303;SDS011;57712;48.752;11.348;2024-01-06T13:27:51;9.05;;;3.58;;
70303;SDS011;57712;48.752;11.348;2024-01-06T13:30:18;7.53;;;3.10;;
70303;SDS011;57712;48.752;11.348;2024-01-06T13:32:46;6.13;;;3.05;;
70303;SDS011;57712;48.752;11.348;2024-01-06T13:35:15;6.10;;;3.13;;
70303;SDS011;57712;48.752;11.348;2024-01-06T13:37:41;8.33;;;3.30;;
70303;SDS011;57712;48.752;11.348;2024-01-06T13:40:09;8.15;;;3.47;;
70303;SDS011;57712;48.752;11.348;2024-01-06T13:42:36;8.80;;;3.97;;
70303;SDS011;57712;48.752;11.348;2024-01-06T13:45:04;8.63;;;4.10;;
70303;SDS011;57712;48.752;11.348;2024-01-06T13:47:31;7.65;;;4.10;;
70303;SDS011;57712;48.752;11.348;2024-01-06T13:49:57;10.47;;;4.33;;
70303;SDS011;57712;48.752;11.348;2024-01-06T13:52:25;11.13;;;4.57;;
70303;SDS011;57712;48.752;11.348;2024-01-06T13:54:52;11.15;;;5.30;;
70303;SDS011;57712;48.752;11.348;2024-01-06T13:57:19;8.57;;;4.40;;
70303;SDS011;57712;48.752;11.348;2024-01-06T13:59:46;10.80;;;4.93;;
70303;SDS011;57712;48.752;11.348;2024-01-06T14:02:13;13.30;;;6.47;;
70303;SDS011;57712;48.752;11.348;2024-01-06T14:04:40;13.07;;;6.63;;
70303;SDS011;57712;48.752;11.348;2024-01-06T14:07:06;14.25;;;7.03;;
70303;SDS011;57712;48.752;11.348;2024-01-06T14:09:33;12.15;;;5.78;;
70303;SDS011;57712;48.752;11.348;2024-01-06T14:12:00;11.68;;;8.05;;
70303;SDS011;57712;48.752;11.348;2024-01-06T14:14:26;9.60;;;5.20;;
70303;SDS011;57712;48.752;11.348;2024-01-06T14:16:53;7.95;;;4.88;;
70303;SDS011;57712;48.752;11.348;2024-01-06T14:19:20;9.48;;;5.10;;
70303;SDS011;57712;48.752;11.348;2024-01-06T14:21:47;12.57;;;5.97;;
70303;SDS011;57712;48.752;11.348;2024-01-06T14:24:14;10.98;;;4.85;;
70303;SDS011;57712;48.752;11.348;2024-01-06T14:26:41;9.83;;;4.87;;
70303;SDS011;57712;48.752;11.348;2024-01-06T14:29:08;11.20;;;4.95;;